Aérodrome :
LOGIN :

S'inscrire | Disclaimer

   EN    FR    IT 

 










Légende :    VFR   VFR Marginal   IFR   IFR Intensif   IFR Très Intensif
Visi : 
Plafond : 
>= 8 km
>= 3000ft
5 à 8 km
1000 à 3000 ft
1500m à 5 km
500 à 1000 ft
800 à 1500m
200 à 500 ft
< 800m
< 200 ft
Symboles :   Orages  Brouillard  Fortes neiges  Fortes précipitations  Vent > 20 kt
SIGMETs :   Divers  Orages  Givrage  Turbulence  Onde Orograph.  Cendres Volcan.






- Altitude de l'aérodrome : 290 ft
- Code IATA : OSI


LDOS - Osijek

DERNIER METAR :
  • 201430Z 13011KT CAVOK 14/11 Q1010

METARs EXPIRÉS :
  • 201400Z 13012KT CAVOK 14/11 Q1010
  • 201330Z 12013KT CAVOK 14/11 Q1010
  • 201300Z 12014KT CAVOK 15/11 Q1010
  • 201230Z 11014KT 9999 FEW037 14/11 Q1010
  • 201200Z 11013KT 9999 SCT030 13/11 Q1011

TAF TAF LDOS
Valide du 20 à 12h jusqu'au 21 à 12h UTC


201125Z 2012/2112 12012KT 9999 SCT015 BKN035 TX15/2111Z TN05/2105Z
BECMG 2017/2019 15006KT
PROB30
TEMPO 2018/2108 1500 BCFG BKN005 BKN025
PROB30 2100/2108 0400 FG VV001



MET'MAP, la Météo Aéronautique d'un coup d'oeil ! - Copyright ORBIFLY Décembre 2007 - Disclaimer

ORBIFLY MET'MAP TEAM :

Programmation & Développement : Alexandra Zaïnal
Conception & Développement : Baudouin d'Aumeries
Co-Programmation & Développement : Marc-Olivier Méhu
Soutien technique & logistique : Manuel Goepfert

Contact : metmap@orbifly.com




SOURCES & CREDITS :

   NOAA